createdAt,value
2018-12-16T00:00:49.083Z,930.58
2018-12-16T00:01:49.152Z,930.57
2018-12-16T00:02:49.189Z,930.59
2018-12-16T00:03:49.276Z,930.57
2018-12-16T00:04:50.009Z,930.58
2018-12-16T00:05:49.342Z,930.57
2018-12-16T00:06:49.371Z,930.58
2018-12-16T00:07:49.438Z,930.57
2018-12-16T00:08:49.488Z,930.56
2018-12-16T00:09:49.542Z,930.64
2018-12-16T00:10:49.598Z,930.62
2018-12-16T00:11:49.661Z,930.70
2018-12-16T00:12:49.698Z,930.68
2018-12-16T00:13:49.741Z,930.74
2018-12-16T00:14:49.785Z,930.79
2018-12-16T00:15:49.828Z,930.76
2018-12-16T00:16:49.888Z,930.82
2018-12-16T00:17:49.951Z,930.85
2018-12-16T00:18:49.997Z,930.89
2018-12-16T00:19:50.042Z,930.92
2018-12-16T00:20:50.124Z,930.94
2018-12-16T00:21:50.127Z,930.98
2018-12-16T00:22:50.205Z,930.99
2018-12-16T00:23:50.225Z,931.02
2018-12-16T00:24:50.302Z,931.02
2018-12-16T00:25:50.356Z,931.06
2018-12-16T00:26:50.398Z,931.06
2018-12-16T00:27:50.434Z,931.08
2018-12-16T00:28:50.497Z,931.04
2018-12-16T00:29:50.550Z,931.05
2018-12-16T00:30:50.597Z,931.02
2018-12-16T00:31:50.641Z,931.05
2018-12-16T00:32:50.683Z,931.01
2018-12-16T00:33:50.724Z,931.01
2018-12-16T00:34:50.774Z,931.03
2018-12-16T00:35:50.858Z,931.02
2018-12-16T00:36:50.922Z,931.05
2018-12-16T00:37:51.011Z,931.12
2018-12-16T00:38:50.986Z,931.13
2018-12-16T00:39:51.049Z,931.15
2018-12-16T00:40:51.077Z,931.15
2018-12-16T00:41:51.179Z,931.22
2018-12-16T00:42:51.187Z,931.16
2018-12-16T00:43:51.272Z,931.20
2018-12-16T00:44:51.293Z,931.21
2018-12-16T00:45:51.401Z,931.24
2018-12-16T00:46:51.384Z,931.22
2018-12-16T00:47:51.433Z,931.26
2018-12-16T00:48:51.502Z,931.25
2018-12-16T00:49:51.554Z,931.24
2018-12-16T00:50:51.613Z,931.28
2018-12-16T00:51:51.633Z,931.28
2018-12-16T00:52:51.705Z,931.25
2018-12-16T00:53:51.789Z,931.25
2018-12-16T00:54:51.768Z,931.29
2018-12-16T00:55:51.886Z,931.24
2018-12-16T00:56:51.893Z,931.24
2018-12-16T00:57:51.928Z,931.22
2018-12-16T00:58:51.989Z,931.19
2018-12-16T00:59:52.076Z,931.19
2018-12-16T01:00:52.096Z,931.17
2018-12-16T01:01:52.146Z,931.16
2018-12-16T01:02:52.199Z,931.17
2018-12-16T01:03:52.230Z,931.14
2018-12-16T01:04:52.298Z,931.19
2018-12-16T01:05:52.347Z,931.15
2018-12-16T01:06:52.397Z,931.19
2018-12-16T01:07:52.448Z,931.20
2018-12-16T01:08:52.496Z,931.16
2018-12-16T01:09:52.518Z,931.18
2018-12-16T01:10:52.609Z,931.20
2018-12-16T01:11:52.656Z,931.24
2018-12-16T01:12:52.681Z,931.18
2018-12-16T01:13:52.733Z,931.29
2018-12-16T01:14:52.775Z,931.26
2018-12-16T01:15:52.856Z,931.31
2018-12-16T01:16:52.899Z,931.32
2018-12-16T01:17:52.934Z,931.34
2018-12-16T01:18:52.988Z,931.33
2018-12-16T01:19:53.042Z,931.33
2018-12-16T01:20:53.099Z,931.34
2018-12-16T01:21:53.122Z,931.32
2018-12-16T01:22:53.194Z,931.36
2018-12-16T01:23:53.223Z,931.35
2018-12-16T01:24:53.288Z,931.33
2018-12-16T01:26:26.614Z,931.31
2018-12-16T01:26:53.444Z,931.34
2018-12-16T01:27:53.489Z,931.34
2018-12-16T01:28:53.530Z,931.35
2018-12-16T01:29:53.629Z,931.35
2018-12-16T01:30:53.599Z,931.38
2018-12-16T01:31:53.645Z,931.35
2018-12-16T01:32:53.697Z,931.35
2018-12-16T01:33:53.735Z,931.32
2018-12-16T01:34:53.793Z,931.29
2018-12-16T01:35:53.844Z,931.28
2018-12-16T01:36:53.935Z,931.27
2018-12-16T01:37:53.955Z,931.23
2018-12-16T01:38:53.996Z,931.23
2018-12-16T01:39:54.061Z,931.29
2018-12-16T01:40:54.098Z,931.28
2018-12-16T01:41:54.123Z,931.30
2018-12-16T01:42:54.194Z,931.29
2018-12-16T01:43:54.233Z,931.29
2018-12-16T01:44:54.311Z,931.32
2018-12-16T01:45:54.331Z,931.30
2018-12-16T01:46:54.405Z,931.30
2018-12-16T01:47:54.448Z,931.29
2018-12-16T01:48:54.500Z,931.30
2018-12-16T01:49:54.546Z,931.27
2018-12-16T01:50:54.586Z,931.26
2018-12-16T01:51:54.662Z,931.24
2018-12-16T01:52:54.723Z,931.26
2018-12-16T01:53:54.803Z,931.25
2018-12-16T01:54:54.798Z,931.25
2018-12-16T01:55:54.879Z,931.25
2018-12-16T01:56:54.890Z,931.26
2018-12-16T01:57:55.002Z,931.24
2018-12-16T01:58:55.018Z,931.27
2018-12-16T01:59:55.050Z,931.25
2018-12-16T02:00:55.082Z,931.23
2018-12-16T02:01:55.149Z,931.24
2018-12-16T02:02:55.184Z,931.28
2018-12-16T02:03:55.248Z,931.29
2018-12-16T02:04:55.276Z,931.32
2018-12-16T02:05:55.346Z,931.32
2018-12-16T02:06:55.373Z,931.29
2018-12-16T02:07:55.442Z,931.32
2018-12-16T02:08:55.485Z,931.33
2018-12-16T02:09:55.546Z,931.33
2018-12-16T02:10:55.602Z,931.34
2018-12-16T02:11:55.631Z,931.35
2018-12-16T02:12:55.682Z,931.31
2018-12-16T02:13:55.738Z,931.34
2018-12-16T02:14:55.777Z,931.33
2018-12-16T02:15:55.845Z,931.32
2018-12-16T02:16:55.878Z,931.32
2018-12-16T02:17:55.985Z,931.32
2018-12-16T02:18:55.997Z,931.31
2018-12-16T02:19:56.089Z,931.29
2018-12-16T02:20:56.099Z,931.29
2018-12-16T02:21:56.169Z,931.30
2018-12-16T02:22:57.030Z,931.26
2018-12-16T02:23:56.281Z,931.25
2018-12-16T02:24:56.278Z,931.23
2018-12-16T02:25:56.350Z,931.23
2018-12-16T02:26:56.374Z,931.19
2018-12-16T02:27:56.455Z,931.18
2018-12-16T02:28:56.539Z,931.18
2018-12-16T02:29:56.552Z,931.17
2018-12-16T02:30:56.633Z,931.16
2018-12-16T02:31:56.654Z,931.17
2018-12-16T02:32:56.690Z,931.11
2018-12-16T02:33:56.731Z,931.11
2018-12-16T02:34:56.801Z,931.06
2018-12-16T02:35:56.844Z,931.11
2018-12-16T02:36:56.901Z,931.07
2018-12-16T02:37:56.953Z,931.05
2018-12-16T02:38:56.990Z,931.04
2018-12-16T02:39:57.040Z,931.06
2018-12-16T02:40:57.105Z,931.05
2018-12-16T02:41:57.145Z,931.05
2018-12-16T02:42:57.190Z,931.05
2018-12-16T02:43:57.217Z,931.08
2018-12-16T02:44:57.281Z,931.07
2018-12-16T02:45:57.330Z,931.04
2018-12-16T02:46:57.384Z,931.10
2018-12-16T02:47:57.449Z,931.03
2018-12-16T02:48:57.489Z,931.04
2018-12-16T02:49:57.536Z,931.02
2018-12-16T02:50:57.612Z,931.04
2018-12-16T02:51:57.640Z,931.01
2018-12-16T02:53:04.331Z,931.02
2018-12-16T02:53:57.758Z,930.99
2018-12-16T02:54:57.786Z,930.99
2018-12-16T02:55:57.841Z,931.01
2018-12-16T02:56:57.905Z,931.01
2018-12-16T02:57:57.937Z,930.99
2018-12-16T02:58:57.978Z,931.00
2018-12-16T02:59:58.045Z,930.96
2018-12-16T03:00:58.097Z,930.97
2018-12-16T03:01:58.143Z,930.91
2018-12-16T03:02:58.184Z,930.96
2018-12-16T03:03:58.218Z,930.93
2018-12-16T03:04:58.292Z,930.94
2018-12-16T03:05:58.343Z,930.92
2018-12-16T03:06:58.395Z,930.96
2018-12-16T03:07:58.442Z,930.97
2018-12-16T03:08:58.484Z,931.01
2018-12-16T03:09:58.550Z,931.02
2018-12-16T03:10:58.578Z,931.03
2018-12-16T03:11:58.690Z,930.97
2018-12-16T03:12:58.709Z,930.97
2018-12-16T03:13:58.733Z,930.95
2018-12-16T03:14:58.794Z,930.94
2018-12-16T03:15:58.819Z,930.90
2018-12-16T03:16:58.892Z,930.91
2018-12-16T03:17:58.939Z,930.91
2018-12-16T03:18:59.001Z,930.88
2018-12-16T03:19:59.044Z,930.91
2018-12-16T03:20:59.092Z,930.91
2018-12-16T03:21:59.137Z,930.87
2018-12-16T03:22:59.183Z,930.89
2018-12-16T03:23:59.241Z,930.89
2018-12-16T03:24:59.307Z,930.88
2018-12-16T03:25:59.345Z,930.85
2018-12-16T03:26:59.384Z,930.84
2018-12-16T03:27:59.424Z,930.87
2018-12-16T03:28:59.471Z,930.89
2018-12-16T03:29:59.539Z,930.85
2018-12-16T03:30:59.574Z,930.85
2018-12-16T03:31:59.664Z,930.86
2018-12-16T03:32:59.692Z,930.86
2018-12-16T03:33:59.727Z,930.86
2018-12-16T03:34:59.789Z,930.87
2018-12-16T03:35:59.825Z,930.83
2018-12-16T03:36:59.899Z,930.83
2018-12-16T03:37:59.924Z,930.80
2018-12-16T03:38:59.959Z,930.77
2018-12-16T03:40:00.019Z,930.77
2018-12-16T03:41:00.068Z,930.73
2018-12-16T03:42:00.127Z,930.72
2018-12-16T03:43:00.168Z,930.70
2018-12-16T03:44:00.200Z,930.67
2018-12-16T03:45:00.279Z,930.72
2018-12-16T03:46:00.324Z,930.73
2018-12-16T03:47:00.384Z,930.73
2018-12-16T03:48:00.420Z,930.76
2018-12-16T03:49:00.460Z,930.78
2018-12-16T03:50:00.576Z,930.77
2018-12-16T03:51:00.584Z,930.77
2018-12-16T03:52:00.617Z,930.78
2018-12-16T03:53:00.693Z,930.80
2018-12-16T03:54:00.716Z,930.80
2018-12-16T03:55:00.777Z,930.77
2018-12-16T03:56:00.864Z,930.75
2018-12-16T03:57:00.870Z,930.74
2018-12-16T03:58:00.927Z,930.79
2018-12-16T03:59:00.987Z,930.83
2018-12-16T04:00:01.038Z,930.79
2018-12-16T04:01:01.083Z,930.86
2018-12-16T04:02:01.120Z,930.84
2018-12-16T04:03:01.166Z,930.89
2018-12-16T04:04:01.229Z,930.88
2018-12-16T04:05:01.289Z,930.96
2018-12-16T04:06:01.294Z,930.94
2018-12-16T04:07:01.381Z,930.92
2018-12-16T04:08:01.423Z,930.92
2018-12-16T04:09:01.461Z,930.94
2018-12-16T04:10:01.527Z,930.92
2018-12-16T04:11:01.576Z,930.88
2018-12-16T04:12:01.620Z,930.91
2018-12-16T04:13:01.633Z,930.86
2018-12-16T04:14:01.690Z,930.83
2018-12-16T04:15:01.794Z,930.85
2018-12-16T04:16:01.849Z,930.89
2018-12-16T04:17:01.842Z,930.87
2018-12-16T04:18:02.195Z,930.88
2018-12-16T04:19:01.941Z,930.83
2018-12-16T04:20:02.019Z,930.86
2018-12-16T04:21:02.053Z,930.82
2018-12-16T04:22:02.099Z,930.80
2018-12-16T04:23:02.151Z,930.86
2018-12-16T04:24:02.227Z,930.81
2018-12-16T04:25:02.255Z,930.80
2018-12-16T04:26:02.306Z,930.76
2018-12-16T04:27:02.326Z,930.75
2018-12-16T04:28:02.406Z,930.76
2018-12-16T04:29:02.444Z,930.72
2018-12-16T04:30:02.493Z,930.72
2018-12-16T04:31:02.528Z,930.73
2018-12-16T04:32:02.648Z,930.71
2018-12-16T04:33:02.945Z,930.73
2018-12-16T04:34:02.684Z,930.73
2018-12-16T04:35:02.716Z,930.73
2018-12-16T04:36:02.797Z,930.75
2018-12-16T04:37:02.894Z,930.75
2018-12-16T04:38:02.891Z,930.74
2018-12-16T04:39:02.929Z,930.72
2018-12-16T04:40:03.031Z,930.71
2018-12-16T04:41:03.024Z,930.66
2018-12-16T04:42:03.098Z,930.71
2018-12-16T04:43:03.187Z,930.68
2018-12-16T04:44:03.224Z,930.69
2018-12-16T04:45:03.227Z,930.73
2018-12-16T04:46:03.276Z,930.68
2018-12-16T04:47:03.328Z,930.70
2018-12-16T04:48:03.403Z,930.68
2018-12-16T04:49:03.456Z,930.71
2018-12-16T04:50:03.476Z,930.71
2018-12-16T04:51:03.526Z,930.78
2018-12-16T04:52:03.581Z,930.72
2018-12-16T04:53:03.631Z,930.79
2018-12-16T04:54:03.669Z,930.77
2018-12-16T04:55:03.720Z,930.80
2018-12-16T04:56:03.778Z,930.82
2018-12-16T04:57:03.818Z,930.77
2018-12-16T04:58:03.860Z,930.81
2018-12-16T04:59:03.912Z,930.76
2018-12-16T05:00:03.947Z,930.80
2018-12-16T05:01:04.014Z,930.75
2018-12-16T05:02:04.038Z,930.79
2018-12-16T05:03:04.099Z,930.82
2018-12-16T05:04:04.134Z,930.84
2018-12-16T05:05:04.199Z,930.83
2018-12-16T05:06:04.227Z,930.85
2018-12-16T05:07:04.293Z,930.83
2018-12-16T05:08:04.358Z,930.83
2018-12-16T05:09:04.388Z,930.83
2018-12-16T05:10:04.444Z,930.81
2018-12-16T05:11:04.533Z,930.82
2018-12-16T05:12:04.550Z,930.79
2018-12-16T05:13:04.633Z,930.85
2018-12-16T05:14:04.609Z,930.87
2018-12-16T05:15:04.682Z,930.89
2018-12-16T05:16:04.724Z,930.89
2018-12-16T05:17:04.784Z,930.86
2018-12-16T05:18:04.817Z,930.84
2018-12-16T05:19:04.860Z,930.82
2018-12-16T05:20:04.936Z,930.84
2018-12-16T05:21:04.965Z,930.79
2018-12-16T05:22:05.009Z,930.80
2018-12-16T05:23:05.051Z,930.85
2018-12-16T05:24:05.104Z,930.79
2018-12-16T05:25:05.143Z,930.88
2018-12-16T05:26:05.201Z,930.88
2018-12-16T05:27:05.285Z,930.86
2018-12-16T05:28:05.320Z,930.87
2018-12-16T05:29:05.327Z,930.91
2018-12-16T05:30:05.384Z,930.85
2018-12-16T05:31:05.440Z,930.90
2018-12-16T05:32:05.532Z,930.90
2018-12-16T05:33:05.558Z,930.91
2018-12-16T05:34:05.599Z,930.91
2018-12-16T05:35:05.643Z,930.89
2018-12-16T05:36:05.680Z,930.86
2018-12-16T05:37:05.765Z,930.87
2018-12-16T05:38:05.785Z,930.88
2018-12-16T05:39:05.907Z,930.89
2018-12-16T05:40:05.886Z,930.86
2018-12-16T05:41:05.914Z,930.78
2018-12-16T05:42:05.994Z,930.81
2018-12-16T05:43:06.020Z,930.84
2018-12-16T05:44:06.085Z,930.82
2018-12-16T05:45:06.135Z,930.82
2018-12-16T05:46:06.167Z,930.83
2018-12-16T05:47:06.248Z,930.82
2018-12-16T05:48:06.280Z,930.83
2018-12-16T05:49:06.321Z,930.78
2018-12-16T05:50:06.357Z,930.81
2018-12-16T05:51:06.393Z,930.85
2018-12-16T05:52:06.456Z,930.87
2018-12-16T05:53:06.506Z,930.90
2018-12-16T05:54:06.563Z,930.86
2018-12-16T05:55:06.596Z,930.88
2018-12-16T05:56:06.660Z,930.83
2018-12-16T05:57:06.699Z,930.85
2018-12-16T05:58:06.752Z,930.81
2018-12-16T05:59:06.817Z,930.80
2018-12-16T06:00:06.875Z,930.82
2018-12-16T06:01:06.912Z,930.84
2018-12-16T06:02:06.949Z,930.80
2018-12-16T06:03:06.993Z,930.86
2018-12-16T06:04:07.023Z,930.83
2018-12-16T06:05:07.103Z,930.86
2018-12-16T06:06:07.133Z,930.87
2018-12-16T06:07:07.187Z,930.85
2018-12-16T06:08:07.254Z,930.85
2018-12-16T06:09:07.294Z,930.81
2018-12-16T06:10:07.333Z,930.82
2018-12-16T06:11:07.628Z,930.79
2018-12-16T06:12:07.438Z,930.84
2018-12-16T06:13:07.481Z,930.84
2018-12-16T06:14:07.515Z,930.83
2018-12-16T06:15:07.571Z,930.84
2018-12-16T06:16:07.615Z,930.84
2018-12-16T06:17:07.656Z,930.83
2018-12-16T06:18:07.729Z,930.87
2018-12-16T06:19:07.749Z,930.85
2018-12-16T06:20:07.810Z,930.90
2018-12-16T06:21:07.882Z,930.90
2018-12-16T06:22:07.967Z,930.82
2018-12-16T06:23:07.968Z,930.87
2018-12-16T06:24:08.062Z,930.85
2018-12-16T06:25:08.096Z,930.84
2018-12-16T06:26:08.102Z,930.84
2018-12-16T06:27:08.501Z,930.85
2018-12-16T06:28:08.207Z,930.80
2018-12-16T06:29:08.239Z,930.80
2018-12-16T06:30:08.317Z,930.82
2018-12-16T06:31:08.321Z,930.74
2018-12-16T06:32:08.412Z,930.72
2018-12-16T06:33:08.446Z,930.74
2018-12-16T06:34:08.508Z,930.76
2018-12-16T06:35:08.544Z,930.70
2018-12-16T06:36:08.582Z,930.70
2018-12-16T06:37:08.667Z,930.70
2018-12-16T06:38:08.674Z,930.68
2018-12-16T06:39:08.755Z,930.71
2018-12-16T06:40:08.821Z,930.77
2018-12-16T06:41:08.866Z,930.78
2018-12-16T06:42:08.937Z,930.76
2018-12-16T06:43:08.928Z,930.76
2018-12-16T06:44:09.093Z,930.79
2018-12-16T06:45:09.087Z,930.80
2018-12-16T06:46:09.112Z,930.81
2018-12-16T06:47:09.124Z,930.81
2018-12-16T06:48:09.180Z,930.81
2018-12-16T06:49:09.229Z,930.83
2018-12-16T06:50:09.308Z,930.87
2018-12-16T06:51:09.312Z,930.89
2018-12-16T06:52:09.389Z,930.88
2018-12-16T06:53:09.457Z,930.91
2018-12-16T06:54:09.463Z,930.93
2018-12-16T06:55:09.524Z,930.95
2018-12-16T06:56:09.583Z,930.96
2018-12-16T06:57:09.603Z,930.95
2018-12-16T06:58:09.651Z,930.96
2018-12-16T06:59:09.708Z,930.98
2018-12-16T07:00:09.755Z,930.95
2018-12-16T07:01:09.805Z,930.97
2018-12-16T07:02:09.827Z,931.00
2018-12-16T07:03:09.890Z,930.99
2018-12-16T07:04:09.942Z,931.05
2018-12-16T07:05:09.992Z,931.07
2018-12-16T07:06:10.039Z,931.11
2018-12-16T07:07:10.096Z,931.16
2018-12-16T07:08:10.131Z,931.16
2018-12-16T07:09:10.173Z,931.18
2018-12-16T07:10:10.203Z,931.18
2018-12-16T07:11:10.286Z,931.18
2018-12-16T07:12:10.349Z,931.14
2018-12-16T07:13:10.406Z,931.17
2018-12-16T07:14:10.442Z,931.14
2018-12-16T07:15:10.473Z,931.17
2018-12-16T07:16:10.515Z,931.17
2018-12-16T07:17:10.610Z,931.19
2018-12-16T07:18:10.673Z,931.24
2018-12-16T07:19:10.656Z,931.28
2018-12-16T07:20:10.724Z,931.28
2018-12-16T07:21:11.011Z,931.33
2018-12-16T07:22:10.837Z,931.36
2018-12-16T07:23:10.865Z,931.35
2018-12-16T07:24:10.918Z,931.38
2018-12-16T07:25:10.961Z,931.38
2018-12-16T07:26:11.014Z,931.41
2018-12-16T07:27:11.054Z,931.47
2018-12-16T07:28:11.142Z,931.44
2018-12-16T07:29:11.167Z,931.45
2018-12-16T07:30:11.211Z,931.48
2018-12-16T07:31:11.253Z,931.49
2018-12-16T07:32:11.318Z,931.48
2018-12-16T07:33:11.353Z,931.43
2018-12-16T07:34:11.439Z,931.43
2018-12-16T07:35:11.447Z,931.40
2018-12-16T07:36:11.523Z,931.42
2018-12-16T07:37:11.532Z,931.39
2018-12-16T07:38:11.587Z,931.38
2018-12-16T07:39:11.615Z,931.38
2018-12-16T07:40:11.727Z,931.37
2018-12-16T07:41:11.735Z,931.37
2018-12-16T07:42:12.028Z,931.39
2018-12-16T07:43:11.798Z,931.29
2018-12-16T07:44:11.898Z,931.25
2018-12-16T07:45:11.920Z,931.22
2018-12-16T07:46:12.019Z,931.19
2018-12-16T07:47:12.063Z,931.18
2018-12-16T07:48:12.109Z,931.20
2018-12-16T07:49:12.177Z,931.17
2018-12-16T07:50:12.156Z,931.15
2018-12-16T07:51:12.219Z,931.12
2018-12-16T07:52:12.240Z,931.14
2018-12-16T07:53:12.626Z,931.10
2018-12-16T07:54:16.017Z,931.07
2018-12-16T07:55:12.405Z,931.09
2018-12-16T07:56:12.445Z,931.06
2018-12-16T07:57:12.517Z,931.07
2018-12-16T07:58:12.544Z,931.03
2018-12-16T07:59:12.592Z,931.04
2018-12-16T08:00:12.643Z,931.03
2018-12-16T08:01:12.746Z,931.05
2018-12-16T08:02:12.747Z,931.01
2018-12-16T08:03:12.787Z,931.00
2018-12-16T08:04:12.858Z,930.98
2018-12-16T08:05:12.884Z,931.01
2018-12-16T08:06:12.939Z,931.02
2018-12-16T08:07:12.983Z,931.01
2018-12-16T08:08:13.030Z,931.01
2018-12-16T08:09:13.081Z,931.05
2018-12-16T08:10:13.131Z,931.06
2018-12-16T08:11:13.168Z,931.10
2018-12-16T08:12:13.216Z,931.10
2018-12-16T08:13:13.267Z,931.10
2018-12-16T08:14:13.558Z,931.12
2018-12-16T08:15:13.377Z,931.12
2018-12-16T08:16:13.394Z,931.16
2018-12-16T08:17:13.444Z,931.15
2018-12-16T08:18:13.522Z,931.14
2018-12-16T08:19:13.551Z,931.13
2018-12-16T08:20:13.597Z,931.12
2018-12-16T08:21:13.640Z,931.12
2018-12-16T08:22:13.700Z,931.09
2018-12-16T08:23:13.749Z,931.07
2018-12-16T08:24:13.794Z,931.12
2018-12-16T08:25:14.096Z,931.14
2018-12-16T08:26:13.916Z,931.14
2018-12-16T08:27:13.937Z,931.15
2018-12-16T08:28:14.016Z,931.17
2018-12-16T08:29:14.034Z,931.22
2018-12-16T08:30:14.077Z,931.25
2018-12-16T08:31:14.108Z,931.25
2018-12-16T08:32:14.163Z,931.24
2018-12-16T08:33:14.225Z,931.25
2018-12-16T08:34:14.256Z,931.27
2018-12-16T08:35:14.308Z,931.27
2018-12-16T08:36:14.337Z,931.28
2018-12-16T08:37:14.435Z,931.30
2018-12-16T08:38:14.457Z,931.31
2018-12-16T08:39:14.517Z,931.30
2018-12-16T08:40:14.558Z,931.29
2018-12-16T08:41:14.617Z,931.31
2018-12-16T08:42:14.646Z,931.30
2018-12-16T08:43:14.693Z,931.29
2018-12-16T08:44:14.751Z,931.33
2018-12-16T08:45:14.798Z,931.37
2018-12-16T08:46:14.838Z,931.36
2018-12-16T08:47:14.891Z,931.38
2018-12-16T08:48:14.938Z,931.36
2018-12-16T08:49:14.989Z,931.39
2018-12-16T08:50:16.613Z,931.37
2018-12-16T08:51:15.073Z,931.37
2018-12-16T08:52:15.142Z,931.35
2018-12-16T08:53:15.182Z,931.29
2018-12-16T08:54:15.203Z,931.31
2018-12-16T08:55:15.264Z,931.35
2018-12-16T08:56:15.322Z,931.28
2018-12-16T08:57:15.405Z,931.31
2018-12-16T08:58:15.400Z,931.29
2018-12-16T08:59:15.468Z,931.33
2018-12-16T09:00:15.498Z,931.34
2018-12-16T09:01:15.575Z,931.34
2018-12-16T09:02:15.613Z,931.36
2018-12-16T09:03:15.654Z,931.38
2018-12-16T09:04:15.691Z,931.35
2018-12-16T09:05:15.761Z,931.34
2018-12-16T09:06:15.805Z,931.39
2018-12-16T09:07:15.821Z,931.35
2018-12-16T09:08:15.903Z,931.40
2018-12-16T09:09:15.947Z,931.38
2018-12-16T09:10:16.041Z,931.42
2018-12-16T09:11:16.047Z,931.44
2018-12-16T09:12:16.072Z,931.45
2018-12-16T09:13:16.144Z,931.41
2018-12-16T09:14:16.159Z,931.38
2018-12-16T09:15:16.237Z,931.38
2018-12-16T09:16:16.291Z,931.37
2018-12-16T09:17:16.341Z,931.35
2018-12-16T09:18:16.378Z,931.35
2018-12-16T09:19:16.408Z,931.38
2018-12-16T09:20:16.457Z,931.39
2018-12-16T09:21:16.523Z,931.38
2018-12-16T09:22:16.556Z,931.39
2018-12-16T09:23:16.615Z,931.41
2018-12-16T09:24:16.675Z,931.38
2018-12-16T09:25:16.729Z,931.38
2018-12-16T09:26:16.796Z,931.36
2018-12-16T09:27:16.821Z,931.33
2018-12-16T09:28:16.871Z,931.33
2018-12-16T09:29:16.918Z,931.34
2018-12-16T09:30:17.002Z,931.30
2018-12-16T09:31:17.014Z,931.37
2018-12-16T09:32:17.094Z,931.35
2018-12-16T09:33:17.118Z,931.29
2018-12-16T09:34:17.138Z,931.31
2018-12-16T09:35:17.223Z,931.32
2018-12-16T09:36:17.240Z,931.32
2018-12-16T09:37:17.307Z,931.29
2018-12-16T09:38:17.399Z,931.32
2018-12-16T09:39:17.402Z,931.30
2018-12-16T09:40:17.463Z,931.30
2018-12-16T09:41:17.491Z,931.38
2018-12-16T09:42:17.555Z,931.38
2018-12-16T09:43:17.606Z,931.40
2018-12-16T09:44:17.648Z,931.40
2018-12-16T09:45:17.698Z,931.40
2018-12-16T09:46:17.734Z,931.41
2018-12-16T09:47:17.775Z,931.40
2018-12-16T09:48:17.830Z,931.40
2018-12-16T09:49:17.906Z,931.43
2018-12-16T09:50:17.932Z,931.48
2018-12-16T09:51:17.980Z,931.48
2018-12-16T09:52:18.017Z,931.52
2018-12-16T09:53:18.101Z,931.51
2018-12-16T09:54:18.152Z,931.52
2018-12-16T09:55:18.204Z,931.50
2018-12-16T09:56:18.230Z,931.45
2018-12-16T09:57:18.285Z,931.45
2018-12-16T09:58:18.360Z,931.49
2018-12-16T09:59:18.390Z,931.47
2018-12-16T10:00:18.431Z,931.48
2018-12-16T10:01:18.463Z,931.48
2018-12-16T10:02:18.541Z,931.47
2018-12-16T10:03:18.600Z,931.51
2018-12-16T10:04:18.620Z,931.55
2018-12-16T10:05:18.696Z,931.56
2018-12-16T10:06:18.739Z,931.57
2018-12-16T10:07:18.793Z,931.57
2018-12-16T10:08:18.865Z,931.62
2018-12-16T10:09:19.510Z,931.66
2018-12-16T10:10:18.951Z,931.65
2018-12-16T10:11:18.990Z,931.64
2018-12-16T10:12:19.034Z,931.74
2018-12-16T10:13:19.137Z,931.73
2018-12-16T10:14:19.142Z,931.79
2018-12-16T10:15:19.247Z,931.75
2018-12-16T10:16:19.253Z,931.78
2018-12-16T10:17:19.337Z,931.73
2018-12-16T10:18:19.399Z,931.77
2018-12-16T10:19:19.438Z,931.76
2018-12-16T10:20:19.499Z,931.79
2018-12-16T10:21:19.526Z,931.76
2018-12-16T10:22:19.563Z,931.77
2018-12-16T10:23:19.630Z,931.76
2018-12-16T10:24:19.687Z,931.77
2018-12-16T10:25:19.746Z,931.74
2018-12-16T10:26:19.806Z,931.74
2018-12-16T10:27:19.856Z,931.76
2018-12-16T10:28:19.911Z,931.73
2018-12-16T10:29:19.950Z,931.81
2018-12-16T10:30:20.042Z,931.78
2018-12-16T10:31:20.070Z,931.81
2018-12-16T10:32:20.120Z,931.76
2018-12-16T10:33:20.185Z,931.75
2018-12-16T10:34:20.251Z,931.75
2018-12-16T10:35:20.302Z,931.72
2018-12-16T10:36:20.371Z,931.74
2018-12-16T10:37:20.445Z,931.69
2018-12-16T10:38:20.499Z,931.69
2018-12-16T10:39:20.513Z,931.70
2018-12-16T10:40:20.583Z,931.75
2018-12-16T10:41:20.630Z,931.77
2018-12-16T10:42:20.719Z,931.77
2018-12-16T10:43:20.788Z,931.78
2018-12-16T10:44:20.840Z,931.84
2018-12-16T10:45:20.865Z,931.78
2018-12-16T10:46:20.957Z,931.80
2018-12-16T10:47:21.023Z,931.81
2018-12-16T10:48:21.127Z,931.79
2018-12-16T10:49:21.116Z,931.80
2018-12-16T10:50:21.182Z,931.78
2018-12-16T10:51:21.342Z,931.75
2018-12-16T10:52:21.336Z,931.74
2018-12-16T10:53:21.352Z,931.72
2018-12-16T10:54:21.461Z,931.75
2018-12-16T10:55:21.499Z,931.74
2018-12-16T10:56:21.509Z,931.73
2018-12-16T10:57:21.590Z,931.75
2018-12-16T10:58:21.643Z,931.73
2018-12-16T10:59:21.695Z,931.68
2018-12-16T11:00:21.758Z,931.68
2018-12-16T11:01:21.938Z,931.67
2018-12-16T11:02:21.884Z,931.71
2018-12-16T11:03:21.953Z,931.71
2018-12-16T11:04:22.016Z,931.74
2018-12-16T11:05:22.098Z,931.78
2018-12-16T11:06:22.140Z,931.76
2018-12-16T11:07:22.190Z,931.76
2018-12-16T11:08:22.262Z,931.80
2018-12-16T11:09:22.322Z,931.82
2018-12-16T11:10:22.360Z,931.84
2018-12-16T11:11:22.432Z,931.84
2018-12-16T11:12:22.602Z,931.86
2018-12-16T11:13:22.541Z,931.81
2018-12-16T11:14:22.631Z,931.80
2018-12-16T11:15:22.684Z,931.75
2018-12-16T11:16:22.736Z,931.74
2018-12-16T11:17:22.803Z,931.76
2018-12-16T11:18:22.862Z,931.76
2018-12-16T11:19:22.895Z,931.80
2018-12-16T11:20:22.981Z,931.85
2018-12-16T11:21:23.055Z,931.84
2018-12-16T11:22:23.147Z,931.85
2018-12-16T11:23:23.174Z,931.83
2018-12-16T11:24:23.214Z,931.84
2018-12-16T11:25:23.277Z,931.82
2018-12-16T11:26:23.374Z,931.83
2018-12-16T11:27:23.458Z,931.80
2018-12-16T11:28:23.470Z,931.83
2018-12-16T11:29:23.583Z,931.87
2018-12-16T11:30:23.591Z,931.90
2018-12-16T11:31:23.704Z,931.91
2018-12-16T11:32:23.696Z,931.91
2018-12-16T11:33:23.788Z,931.97
2018-12-16T11:34:23.821Z,932.04
2018-12-16T11:35:23.939Z,932.04
2018-12-16T11:36:23.951Z,932.04
2018-12-16T11:37:24.042Z,932.09
2018-12-16T11:38:24.063Z,932.06
2018-12-16T11:39:24.149Z,932.01
2018-12-16T11:40:24.176Z,932.01
2018-12-16T11:41:24.263Z,932.02
2018-12-16T11:42:24.315Z,932.01
2018-12-16T11:43:24.396Z,932.06
2018-12-16T11:44:24.431Z,932.07
2018-12-16T11:45:24.497Z,932.05
2018-12-16T11:46:24.575Z,932.04
2018-12-16T11:47:24.624Z,932.01
2018-12-16T11:48:24.705Z,932.02
2018-12-16T11:49:24.762Z,931.98
2018-12-16T11:50:24.813Z,931.95
2018-12-16T11:51:24.921Z,931.90
2018-12-16T11:52:25.071Z,931.87
2018-12-16T11:53:25.013Z,931.86
2018-12-16T11:54:25.082Z,931.82
2018-12-16T11:55:25.165Z,931.81
2018-12-16T11:56:25.211Z,931.80
2018-12-16T11:57:25.307Z,931.84
2018-12-16T11:58:25.329Z,931.80
2018-12-16T11:59:25.401Z,931.85
2018-12-16T12:00:25.438Z,931.88
2018-12-16T12:01:25.510Z,931.86
2018-12-16T12:02:25.591Z,931.88
2018-12-16T12:03:25.639Z,931.84
2018-12-16T12:04:25.745Z,931.83
2018-12-16T12:05:25.751Z,931.86
2018-12-16T12:06:25.818Z,931.84
2018-12-16T12:07:25.882Z,931.87
2018-12-16T12:08:25.940Z,931.89
2018-12-16T12:09:26.007Z,931.91
2018-12-16T12:10:26.087Z,931.90
2018-12-16T12:11:26.138Z,931.89
2018-12-16T12:12:26.251Z,931.89
2018-12-16T12:13:26.285Z,931.90
2018-12-16T12:14:26.336Z,931.85
2018-12-16T12:15:26.385Z,931.88
2018-12-16T12:16:26.509Z,931.89
2018-12-16T12:17:26.529Z,931.88
2018-12-16T12:18:26.604Z,931.92
2018-12-16T12:19:26.655Z,931.89
2018-12-16T12:20:26.730Z,931.87
2018-12-16T12:21:26.824Z,931.89
2018-12-16T12:22:26.855Z,931.84
2018-12-16T12:23:26.911Z,931.87
2018-12-16T12:24:26.976Z,931.88
2018-12-16T12:25:27.024Z,931.86
2018-12-16T12:26:27.128Z,931.86
2018-12-16T12:27:27.162Z,931.86
2018-12-16T12:28:27.252Z,931.86
2018-12-16T12:29:27.300Z,931.88